Terminal Aerodrome Forecast
Issued by NWS Hastings, NE

Home | Current Version | Previous Version | Text Only | Print | Product List | Glossary On
Versions: 1 2 3 4 5 6 7 8 9 10 11 12 13 14 15 16
808
FTUS45 KGID 072337
TAFEAR
TAF
KEAR 072337Z 0800/0824 31025G35KT P6SM BKN120
     FM080300 31020G30KT P6SM BKN060 WS020/32055KT
     FM081400 33025G35KT P6SM SCT060
     FM082000 33020G28KT P6SM SCT250
      AMD LTD TO CLD VIS AND WIND=

USA.gov is the U.S. government's official web portal to all federal, state and local government web resources and services.